Time;durP1;ratioP1;P1;durP2;ratioP2;P2;SDS_P1;SDS_P2;PMS_P1;PMS_P2;Temp;Humidity;BMP_temperature;BMP_pressure;BME280_temperature;BME280_humidity;BME280_pressure;Samples;Min_cycle;Max_cycle;Signal;HPM_P1;HPM_P2
2022/02/18 00:01:52;;;;;;;4.70;2.87;;;;;;;;;;5001849;28;20436;-56
2022/02/18 00:04:17;;;;;;;4.70;3.07;;;;;;;;;;5001103;28;20281;-55
2022/02/18 00:06:43;;;;;;;4.33;2.80;;;;;;;;;;5001528;28;20030;-56
2022/02/18 00:09:08;;;;;;;3.90;2.70;;;;;;;;;;5001454;28;20283;-56
2022/02/18 00:11:33;;;;;;;4.82;2.88;;;;;;;;;;5001997;28;20043;-55
2022/02/18 00:13:58;;;;;;;4.43;2.73;;;;;;;;;;5001379;28;20481;-55
2022/02/18 00:16:24;;;;;;;4.35;2.80;;;;;;;;;;4983676;28;20292;-54
2022/02/18 00:18:49;;;;;;;3.90;3.08;;;;;;;;;;5001056;28;20025;-55
2022/02/18 00:21:14;;;;;;;4.70;2.60;;;;;;;;;;4998192;28;20050;-55
2022/02/18 00:23:39;;;;;;;4.00;2.63;;;;;;;;;;4987562;28;20018;-55
2022/02/18 00:26:05;;;;;;;4.30;3.00;;;;;;;;;;5001008;28;20367;-55
2022/02/18 00:28:30;;;;;;;4.13;2.63;;;;;;;;;;4988012;28;20038;-56
2022/02/18 00:30:55;;;;;;;3.93;2.73;;;;;;;;;;4981374;28;20024;-54
2022/02/18 00:33:20;;;;;;;4.40;3.22;;;;;;;;;;5001040;28;20300;-55
2022/02/18 00:35:46;;;;;;;3.70;2.95;;;;;;;;;;4993714;28;20015;-57
2022/02/18 00:38:11;;;;;;;3.80;2.37;;;;;;;;;;4992138;28;20425;-56
2022/02/18 00:40:36;;;;;;;4.20;2.80;;;;;;;;;;4986973;28;20030;-55
2022/02/18 00:43:02;;;;;;;4.38;2.70;;;;;;;;;;4996111;28;20276;-56
2022/02/18 00:45:28;;;;;;;3.80;2.72;;;;;;;;;;4990771;28;20072;-55
2022/02/18 00:47:53;;;;;;;3.85;2.75;;;;;;;;;;5000449;28;20342;-54
2022/02/18 00:50:18;;;;;;;3.85;2.60;;;;;;;;;;5001137;28;20515;-53
2022/02/18 00:52:44;;;;;;;3.78;2.90;;;;;;;;;;4986258;28;20022;-54
2022/02/18 00:55:09;;;;;;;3.33;2.67;;;;;;;;;;4997639;28;20030;-54
2022/02/18 00:57:35;;;;;;;3.72;2.60;;;;;;;;;;4981110;28;20137;-55
2022/02/18 01:00:00;;;;;;;3.45;2.50;;;;;;;;;;4989553;28;20034;-56
2022/02/18 01:02:25;;;;;;;4.00;2.80;;;;;;;;;;5001073;28;20038;-55
2022/02/18 01:04:50;;;;;;;3.80;2.60;;;;;;;;;;4982480;28;20018;-55
2022/02/18 01:07:15;;;;;;;3.77;2.57;;;;;;;;;;4966326;28;20052;-55
2022/02/18 01:09:41;;;;;;;3.70;2.97;;;;;;;;;;5000569;28;20021;-56
2022/02/18 01:12:06;;;;;;;3.60;3.00;;;;;;;;;;5000414;28;20032;-56
2022/02/18 01:14:31;;;;;;;4.38;3.03;;;;;;;;;;5000584;28;20052;-55
2022/02/18 01:16:56;;;;;;;3.57;2.43;;;;;;;;;;5000487;28;20729;-56
2022/02/18 01:19:22;;;;;;;5.25;3.22;;;;;;;;;;5000450;28;20488;-55
2022/02/18 01:21:47;;;;;;;4.45;3.20;;;;;;;;;;5000323;28;20088;-55
2022/02/18 01:24:12;;;;;;;3.73;2.80;;;;;;;;;;5000086;28;20030;-56
2022/02/18 01:26:37;;;;;;;4.38;2.95;;;;;;;;;;4999311;28;20297;-56
2022/02/18 01:29:03;;;;;;;3.10;2.50;;;;;;;;;;5000226;28;20469;-55
2022/02/18 01:31:28;;;;;;;4.43;2.70;;;;;;;;;;5000156;28;20265;-55
2022/02/18 01:33:54;;;;;;;3.25;2.63;;;;;;;;;;4999809;28;20275;-55
2022/02/18 01:36:19;;;;;;;3.15;2.55;;;;;;;;;;5000047;28;20128;-55
2022/02/18 01:38:44;;;;;;;3.72;2.60;;;;;;;;;;5000148;28;20014;-56
2022/02/18 01:41:11;;;;;;;3.78;2.70;;;;;;;;;;4998967;28;20033;-56
2022/02/18 01:43:37;;;;;;;3.58;2.63;;;;;;;;;;4999465;28;20040;-56
2022/02/18 01:46:03;;;;;;;3.92;2.78;;;;;;;;;;4999788;28;20036;-54
2022/02/18 01:48:29;;;;;;;4.13;2.85;;;;;;;;;;4999693;28;20046;-55
2022/02/18 01:50:57;;;;;;;3.53;2.70;;;;;;;;;;4999455;28;20456;-56
2022/02/18 01:53:23;;;;;;;5.05;3.03;;;;;;;;;;4999411;28;20021;-55
2022/02/18 01:55:48;;;;;;;4.10;3.00;;;;;;;;;;4974241;28;20096;-56
2022/02/18 01:58:13;;;;;;;4.83;2.80;;;;;;;;;;4990165;28;20022;-58
2022/02/18 02:00:38;;;;;;;3.80;2.53;;;;;;;;;;4982253;28;20356;-53
2022/02/18 02:03:04;;;;;;;3.17;2.50;;;;;;;;;;4999671;28;20104;-55
2022/02/18 02:05:29;;;;;;;3.40;2.67;;;;;;;;;;4998574;28;20308;-55
2022/02/18 02:07:54;;;;;;;3.42;2.40;;;;;;;;;;4999379;28;20330;-57
2022/02/18 02:10:19;;;;;;;4.30;2.65;;;;;;;;;;4999451;28;20022;-56
2022/02/18 02:12:52;;;;;;;3.67;2.80;;;;;;;;;;4999562;28;20030;-55
2022/02/18 02:15:24;;;;;;;3.03;2.40;;;;;;;;;;4999159;28;20026;-56
2022/02/18 02:17:49;;;;;;;4.60;2.50;;;;;;;;;;4999566;28;20025;-56
2022/02/18 02:20:16;;;;;;;3.28;2.60;;;;;;;;;;4999368;28;20661;-55
2022/02/18 02:22:42;;;;;;;3.97;2.33;;;;;;;;;;4999068;28;20030;-56
2022/02/18 02:25:07;;;;;;;3.50;2.33;;;;;;;;;;4999217;28;20530;-57
2022/02/18 02:27:32;;;;;;;3.63;2.70;;;;;;;;;;4998996;28;20316;-56
2022/02/18 02:29:58;;;;;;;3.75;2.55;;;;;;;;;;4991774;28;20560;-56
2022/02/18 02:32:23;;;;;;;3.55;2.53;;;;;;;;;;4999259;28;20018;-57
2022/02/18 02:34:48;;;;;;;4.00;2.50;;;;;;;;;;4999017;28;20053;-56
2022/02/18 02:37:13;;;;;;;3.33;2.30;;;;;;;;;;4982998;28;20006;-56
2022/02/18 02:39:39;;;;;;;4.17;2.50;;;;;;;;;;4999672;28;20269;-56
2022/02/18 02:42:06;;;;;;;3.90;2.50;;;;;;;;;;4999001;28;20647;-56
2022/02/18 02:44:31;;;;;;;3.50;2.60;;;;;;;;;;4999089;28;20014;-54
2022/02/18 02:46:57;;;;;;;4.10;2.70;;;;;;;;;;4998862;28;20044;-56
2022/02/18 02:49:22;;;;;;;3.70;2.40;;;;;;;;;;4998882;28;20040;-56
2022/02/18 02:51:47;;;;;;;4.03;2.30;;;;;;;;;;4992504;28;21630;-54
2022/02/18 02:54:12;;;;;;;3.00;2.30;;;;;;;;;;4989666;28;20683;-56
2022/02/18 02:56:38;;;;;;;3.40;2.40;;;;;;;;;;4985664;28;20092;-55
2022/02/18 02:59:03;;;;;;;3.33;2.60;;;;;;;;;;4996462;28;20018;-56
2022/02/18 03:01:28;;;;;;;3.93;2.40;;;;;;;;;;4999058;28;20334;-56
2022/02/18 03:03:53;;;;;;;4.05;2.63;;;;;;;;;;4998970;28;20014;-57
2022/02/18 03:06:19;;;;;;;3.70;2.73;;;;;;;;;;4999022;28;20075;-60
2022/02/18 03:08:44;;;;;;;3.85;2.70;;;;;;;;;;5002398;28;20280;-56
2022/02/18 03:11:15;;;;;;;3.45;2.40;;;;;;;;;;5002203;28;20132;-55
2022/02/18 03:13:41;;;;;;;4.22;2.40;;;;;;;;;;5001473;28;20052;-55
2022/02/18 03:16:06;;;;;;;3.35;2.50;;;;;;;;;;4993535;28;20357;-55
2022/02/18 03:18:31;;;;;;;3.00;2.30;;;;;;;;;;4995369;28;20119;-57
2022/02/18 03:20:56;;;;;;;3.78;2.70;;;;;;;;;;5001779;28;20280;-55
2022/02/18 03:23:22;;;;;;;3.40;2.40;;;;;;;;;;5001963;28;20079;-58
2022/02/18 03:25:47;;;;;;;4.00;2.78;;;;;;;;;;5002287;28;20049;-57
2022/02/18 03:28:12;;;;;;;3.23;2.23;;;;;;;;;;5002226;28;20126;-57
2022/02/18 03:30:37;;;;;;;3.92;2.60;;;;;;;;;;5002236;28;20064;-57
2022/02/18 03:33:03;;;;;;;3.17;2.50;;;;;;;;;;5001423;28;20512;-56
2022/02/18 03:35:28;;;;;;;3.60;2.22;;;;;;;;;;4997623;28;20026;-56
2022/02/18 03:37:53;;;;;;;2.83;2.15;;;;;;;;;;4990043;28;20562;-57
2022/02/18 03:40:19;;;;;;;3.80;2.60;;;;;;;;;;5002388;28;20441;-57
2022/02/18 03:42:44;;;;;;;3.17;2.27;;;;;;;;;;5001416;28;20586;-56
2022/02/18 03:45:09;;;;;;;3.63;2.45;;;;;;;;;;5001944;28;20485;-57
2022/02/18 03:47:35;;;;;;;3.97;2.50;;;;;;;;;;5001781;28;20053;-55
2022/02/18 03:50:00;;;;;;;3.33;2.50;;;;;;;;;;5001707;28;20022;-55
2022/02/18 03:52:25;;;;;;;3.90;2.43;;;;;;;;;;5001371;28;20268;-55
2022/02/18 03:54:50;;;;;;;5.07;2.53;;;;;;;;;;5001375;28;20025;-55
2022/02/18 03:57:15;;;;;;;3.80;2.10;;;;;;;;;;5001433;28;20732;-57
2022/02/18 03:59:41;;;;;;;3.77;2.27;;;;;;;;;;4984232;28;20401;-56
2022/02/18 04:02:06;;;;;;;2.73;2.07;;;;;;;;;;5001345;28;20679;-57
2022/02/18 04:04:31;;;;;;;3.87;2.50;;;;;;;;;;5000787;28;20326;-55
2022/02/18 04:06:56;;;;;;;4.37;2.23;;;;;;;;;;5000274;28;20297;-57
2022/02/18 04:09:22;;;;;;;2.80;2.23;;;;;;;;;;5001413;28;20028;-57
2022/02/18 04:11:47;;;;;;;3.77;2.40;;;;;;;;;;5001065;28;20030;-57
2022/02/18 04:14:13;;;;;;;3.03;2.03;;;;;;;;;;4973526;28;20042;-56
2022/02/18 04:16:38;;;;;;;3.85;2.55;;;;;;;;;;4985554;28;20482;-56
2022/02/18 04:19:03;;;;;;;3.07;2.10;;;;;;;;;;4996823;28;20032;-56
2022/02/18 04:21:28;;;;;;;3.80;2.20;;;;;;;;;;5001263;28;20024;-56
2022/02/18 04:23:53;;;;;;;3.17;2.30;;;;;;;;;;5001307;28;20017;-55
2022/02/18 04:26:19;;;;;;;3.17;2.30;;;;;;;;;;5001181;28;20334;-57
2022/02/18 04:28:44;;;;;;;3.53;2.30;;;;;;;;;;4980154;28;20033;-55
2022/02/18 04:31:09;;;;;;;3.45;2.38;;;;;;;;;;4998818;28;20265;-55
2022/02/18 04:33:35;;;;;;;3.27;2.13;;;;;;;;;;5000489;28;20477;-56
2022/02/18 04:36:01;;;;;;;3.65;2.22;;;;;;;;;;5000460;28;20496;-56
2022/02/18 04:38:27;;;;;;;2.78;1.90;;;;;;;;;;5001155;28;20021;-56
2022/02/18 04:40:52;;;;;;;3.05;1.88;;;;;;;;;;5001156;28;20022;-54
2022/02/18 04:43:17;;;;;;;2.97;2.00;;;;;;;;;;4999789;28;20052;-55
2022/02/18 04:45:42;;;;;;;3.73;2.30;;;;;;;;;;5000926;28;20363;-57
2022/02/18 04:48:07;;;;;;;3.13;1.97;;;;;;;;;;5000408;28;20370;-55
2022/02/18 04:50:33;;;;;;;2.60;1.77;;;;;;;;;;5000512;28;20358;-55
2022/02/18 04:52:58;;;;;;;3.33;2.10;;;;;;;;;;5000420;28;20283;-56
2022/02/18 04:55:23;;;;;;;2.93;2.10;;;;;;;;;;4997556;28;20110;-55
2022/02/18 04:57:48;;;;;;;2.70;2.00;;;;;;;;;;4987429;28;20017;-57
2022/02/18 05:00:14;;;;;;;2.90;2.08;;;;;;;;;;5001057;28;20030;-56
2022/02/18 05:02:39;;;;;;;3.55;2.03;;;;;;;;;;5001037;28;20113;-57
2022/02/18 05:05:05;;;;;;;2.87;1.90;;;;;;;;;;4983748;28;20061;-56
2022/02/18 05:07:30;;;;;;;3.15;2.20;;;;;;;;;;5000153;28;20354;-57
2022/02/18 05:09:55;;;;;;;2.83;1.90;;;;;;;;;;5000805;28;20017;-56
2022/02/18 05:12:21;;;;;;;3.08;1.85;;;;;;;;;;5000486;28;20026;-57
2022/02/18 05:14:48;;;;;;;2.60;2.00;;;;;;;;;;5000608;28;20102;-56
2022/02/18 05:17:13;;;;;;;2.67;1.92;;;;;;;;;;5000241;28;20026;-56
2022/02/18 05:19:38;;;;;;;2.53;1.80;;;;;;;;;;4982974;28;20056;-55
2022/02/18 05:22:04;;;;;;;2.95;1.88;;;;;;;;;;5000561;28;20051;-57
2022/02/18 05:24:29;;;;;;;3.73;2.20;;;;;;;;;;5000443;28;20113;-57
2022/02/18 05:26:54;;;;;;;2.67;1.70;;;;;;;;;;5000097;28;20718;-57
2022/02/18 05:29:19;;;;;;;3.10;1.83;;;;;;;;;;5000317;28;20092;-58
2022/02/18 05:31:45;;;;;;;3.30;2.03;;;;;;;;;;5000861;28;20508;-57
2022/02/18 05:34:11;;;;;;;3.22;1.73;;;;;;;;;;5000088;28;20265;-57
2022/02/18 05:36:36;;;;;;;3.22;2.03;;;;;;;;;;4987402;28;20113;-58
2022/02/18 05:39:03;;;;;;;2.63;1.83;;;;;;;;;;4980737;28;20109;-57
2022/02/18 05:41:28;;;;;;;3.13;1.83;;;;;;;;;;4983427;28;20264;-57
2022/02/18 05:43:54;;;;;;;2.60;1.90;;;;;;;;;;4999833;28;20018;-57
2022/02/18 05:46:19;;;;;;;2.50;1.80;;;;;;;;;;4993015;28;20424;-57
2022/02/18 05:48:44;;;;;;;2.63;1.65;;;;;;;;;;4980337;28;20580;-57
2022/02/18 05:51:09;;;;;;;2.00;1.58;;;;;;;;;;4980408;28;20034;-57
2022/02/18 05:53:35;;;;;;;3.17;2.20;;;;;;;;;;4999210;28;20049;-56
2022/02/18 05:56:00;;;;;;;2.93;1.77;;;;;;;;;;4999239;28;20189;-57
2022/02/18 05:58:25;;;;;;;3.23;1.90;;;;;;;;;;4979202;28;20277;-56
2022/02/18 06:00:50;;;;;;;2.10;1.60;;;;;;;;;;4988264;28;20316;-57
2022/02/18 06:03:16;;;;;;;2.97;1.77;;;;;;;;;;4988151;28;20099;-55
2022/02/18 06:05:42;;;;;;;2.70;1.60;;;;;;;;;;4998459;28;20056;-56
2022/02/18 06:08:07;;;;;;;2.65;1.70;;;;;;;;;;4992356;28;20305;-55
2022/02/18 06:10:35;;;;;;;2.83;1.70;;;;;;;;;;4999130;28;20030;-56
2022/02/18 06:13:00;;;;;;;2.70;1.85;;;;;;;;;;4998739;28;20025;-56
2022/02/18 06:15:26;;;;;;;3.10;1.70;;;;;;;;;;4996316;28;20079;-57
2022/02/18 06:17:52;;;;;;;2.50;1.45;;;;;;;;;;4999210;28;20084;-56
2022/02/18 06:20:17;;;;;;;2.67;1.42;;;;;;;;;;4998003;28;20467;-56
2022/02/18 06:22:42;;;;;;;2.40;1.80;;;;;;;;;;4999102;28;20088;-56
2022/02/18 06:25:08;;;;;;;3.15;1.60;;;;;;;;;;4999361;28;20269;-57
2022/02/18 06:27:33;;;;;;;3.67;1.98;;;;;;;;;;4999109;28;20049;-56
2022/02/18 06:29:59;;;;;;;2.40;1.60;;;;;;;;;;4992342;28;20053;-57
2022/02/18 06:32:24;;;;;;;2.73;1.60;;;;;;;;;;4995181;28;20359;-57
2022/02/18 06:34:50;;;;;;;2.30;1.40;;;;;;;;;;4999302;28;20395;-56
2022/02/18 06:37:15;;;;;;;3.40;1.40;;;;;;;;;;4996691;28;20121;-54
2022/02/18 06:39:41;;;;;;;1.80;1.27;;;;;;;;;;4980082;28;20129;-56
2022/02/18 06:42:06;;;;;;;3.22;1.30;;;;;;;;;;4981359;28;20308;-56
2022/02/18 06:44:31;;;;;;;2.90;1.33;;;;;;;;;;4994855;28;20128;-54
2022/02/18 06:46:56;;;;;;;3.20;1.20;;;;;;;;;;5003209;28;20064;-55
2022/02/18 06:49:22;;;;;;;4.03;1.30;;;;;;;;;;5002631;28;20029;-53
2022/02/18 06:51:55;;;;;;;3.40;1.60;;;;;;;;;;5001817;28;20834;-56
2022/02/18 06:54:20;;;;;;;2.83;1.60;;;;;;;;;;5001822;28;20048;-56
2022/02/18 06:56:45;;;;;;;2.17;1.20;;;;;;;;;;5001271;28;20488;-56
2022/02/18 06:59:10;;;;;;;1.73;1.10;;;;;;;;;;4969428;28;20305;-56
2022/02/18 07:01:35;;;;;;;1.80;1.30;;;;;;;;;;5002701;28;20108;-55
2022/02/18 07:04:01;;;;;;;2.20;1.20;;;;;;;;;;5002228;28;20112;-55
2022/02/18 07:06:26;;;;;;;1.73;1.30;;;;;;;;;;5002322;28;20129;-56
2022/02/18 07:08:51;;;;;;;1.93;1.13;;;;;;;;;;5002815;28;20064;-58
2022/02/18 07:11:16;;;;;;;3.20;1.30;;;;;;;;;;5001122;28;20105;-55
2022/02/18 07:13:42;;;;;;;1.87;1.20;;;;;;;;;;5001509;28;20454;-54
2022/02/18 07:16:07;;;;;;;2.13;1.40;;;;;;;;;;4994350;28;20415;-57
2022/02/18 07:18:32;;;;;;;2.80;1.40;;;;;;;;;;4986546;28;20033;-56
2022/02/18 07:20:57;;;;;;;1.80;1.10;;;;;;;;;;4982479;28;20102;-57
2022/02/18 07:23:22;;;;;;;1.90;1.10;;;;;;;;;;4985082;28;20022;-55
2022/02/18 07:25:48;;;;;;;2.00;1.35;;;;;;;;;;4980184;28;20360;-56
2022/02/18 07:28:17;;;;;;;2.33;1.20;;;;;;;;;;4978081;28;20080;-57
2022/02/18 07:30:43;;;;;;;2.05;1.23;;;;;;;;;;4985090;28;20030;-55
2022/02/18 07:33:09;;;;;;;2.17;1.20;;;;;;;;;;4999209;28;20095;-56
2022/02/18 07:35:34;;;;;;;2.10;1.43;;;;;;;;;;5002462;28;20025;-56
2022/02/18 07:38:00;;;;;;;1.63;1.20;;;;;;;;;;4970287;28;20026;-56
2022/02/18 07:40:25;;;;;;;1.95;1.10;;;;;;;;;;4982279;28;20041;-56
2022/02/18 07:42:50;;;;;;;1.77;1.17;;;;;;;;;;4981215;28;20033;-55
2022/02/18 07:45:15;;;;;;;2.63;1.30;;;;;;;;;;4984516;28;20906;-55
2022/02/18 07:47:41;;;;;;;1.57;1.07;;;;;;;;;;4986789;28;20517;-56
2022/02/18 07:50:06;;;;;;;1.70;1.02;;;;;;;;;;4983308;28;20598;-55
2022/02/18 07:52:31;;;;;;;2.10;1.13;;;;;;;;;;4988603;28;20081;-55
2022/02/18 07:54:57;;;;;;;2.08;1.00;;;;;;;;;;4995797;28;20513;-56
2022/02/18 07:57:25;;;;;;;1.73;1.20;;;;;;;;;;4994643;28;20077;-56
2022/02/18 07:59:50;;;;;;;1.70;1.02;;;;;;;;;;4982592;28;20521;-56
2022/02/18 08:02:15;;;;;;;1.60;0.90;;;;;;;;;;4991283;28;20080;-56
2022/02/18 08:04:40;;;;;;;2.63;1.08;;;;;;;;;;5001542;28;20026;-54
2022/02/18 08:07:05;;;;;;;2.90;1.20;;;;;;;;;;4988279;28;20034;-56
2022/02/18 08:09:33;;;;;;;2.60;1.10;;;;;;;;;;4983519;28;20029;-56
2022/02/18 08:11:58;;;;;;;3.03;1.42;;;;;;;;;;4982220;28;20034;-56
2022/02/18 08:14:23;;;;;;;1.67;1.00;;;;;;;;;;4982422;28;20018;-56
2022/02/18 08:16:48;;;;;;;1.67;1.13;;;;;;;;;;4983335;28;20054;-55
2022/02/18 08:19:14;;;;;;;3.20;1.10;;;;;;;;;;4984712;28;20030;-56
2022/02/18 08:21:39;;;;;;;1.60;1.00;;;;;;;;;;4983898;28;20557;-56
2022/02/18 08:24:04;;;;;;;2.33;1.10;;;;;;;;;;4981438;28;20257;-56
2022/02/18 08:26:32;;;;;;;3.63;1.35;;;;;;;;;;4982304;28;20045;-55
2022/02/18 08:28:57;;;;;;;2.08;1.00;;;;;;;;;;4982695;28;20121;-56
2022/02/18 08:31:22;;;;;;;1.67;1.00;;;;;;;;;;4984940;28;20101;-57
2022/02/18 08:33:47;;;;;;;2.20;1.20;;;;;;;;;;4983451;28;20269;-55
2022/02/18 08:36:13;;;;;;;2.50;1.00;;;;;;;;;;4983586;28;20405;-55
2022/02/18 08:38:38;;;;;;;1.83;1.10;;;;;;;;;;4985803;28;20412;-56
2022/02/18 08:41:03;;;;;;;1.90;0.93;;;;;;;;;;4982728;28;20018;-56
2022/02/18 08:43:28;;;;;;;2.05;1.30;;;;;;;;;;4984730;28;20730;-56
2022/02/18 08:45:54;;;;;;;2.47;0.88;;;;;;;;;;4983170;28;20006;-56
2022/02/18 08:48:19;;;;;;;1.33;0.90;;;;;;;;;;4982420;28;20092;-57
2022/02/18 08:50:44;;;;;;;2.40;0.95;;;;;;;;;;4982543;28;20266;-60
2022/02/18 08:53:09;;;;;;;2.23;0.97;;;;;;;;;;4982562;28;20026;-55
2022/02/18 08:55:35;;;;;;;2.87;1.00;;;;;;;;;;4983378;28;20831;-57
2022/02/18 08:58:01;;;;;;;3.03;1.00;;;;;;;;;;4965744;28;20588;-56
2022/02/18 09:00:27;;;;;;;1.77;1.10;;;;;;;;;;4979908;28;20026;-57
2022/02/18 09:02:52;;;;;;;1.90;0.88;;;;;;;;;;4980686;28;20501;-56
2022/02/18 09:05:17;;;;;;;3.00;1.00;;;;;;;;;;4983010;28;20026;-57
2022/02/18 09:07:44;;;;;;;2.33;1.10;;;;;;;;;;4980614;28;20069;-55
2022/02/18 09:10:10;;;;;;;1.98;0.80;;;;;;;;;;4980663;28;20754;-55
2022/02/18 09:12:37;;;;;;;1.77;0.90;;;;;;;;;;4980875;28;20022;-56
2022/02/18 09:15:04;;;;;;;1.35;0.73;;;;;;;;;;4982829;28;20063;-56
2022/02/18 09:17:29;;;;;;;2.33;0.80;;;;;;;;;;4982949;28;20031;-57
2022/02/18 09:19:55;;;;;;;1.60;0.80;;;;;;;;;;4988046;28;20089;-55
2022/02/18 09:22:20;;;;;;;2.10;0.90;;;;;;;;;;4980166;28;20022;-55
2022/02/18 09:24:46;;;;;;;1.98;1.00;;;;;;;;;;4987634;28;20097;-55
2022/02/18 09:27:11;;;;;;;2.47;0.80;;;;;;;;;;4979892;28;20042;-56
2022/02/18 09:29:36;;;;;;;1.93;0.90;;;;;;;;;;4980117;28;20512;-56
2022/02/18 09:32:04;;;;;;;2.20;0.90;;;;;;;;;;4980496;28;20519;-57
2022/02/18 09:34:30;;;;;;;2.58;0.82;;;;;;;;;;4987245;28;20100;-56
2022/02/18 09:36:55;;;;;;;1.40;0.70;;;;;;;;;;4985226;28;20034;-56
2022/02/18 09:39:21;;;;;;;1.80;1.07;;;;;;;;;;4981842;28;20018;-56
2022/02/18 09:41:46;;;;;;;1.50;0.80;;;;;;;;;;4990114;28;20485;-57
2022/02/18 09:44:14;;;;;;;2.43;1.00;;;;;;;;;;4979560;28;20045;-56
2022/02/18 09:46:39;;;;;;;2.92;0.90;;;;;;;;;;4966644;28;20316;-55
2022/02/18 09:49:04;;;;;;;1.67;0.80;;;;;;;;;;4978824;28;20505;-56
2022/02/18 09:51:30;;;;;;;3.13;0.80;;;;;;;;;;4981708;28;20064;-56
2022/02/18 09:53:58;;;;;;;2.10;0.90;;;;;;;;;;4980127;28;20551;-57
2022/02/18 09:56:23;;;;;;;1.52;0.70;;;;;;;;;;4978866;28;20481;-57
2022/02/18 09:58:48;;;;;;;1.52;0.75;;;;;;;;;;4978672;28;20115;-56
2022/02/18 10:01:14;;;;;;;1.10;0.70;;;;;;;;;;4983523;28;20014;-57
2022/02/18 10:03:39;;;;;;;1.42;0.63;;;;;;;;;;4980796;28;20026;-55
2022/02/18 10:06:04;;;;;;;2.45;1.13;;;;;;;;;;4995340;28;20024;-57
2022/02/18 10:08:31;;;;;;;1.42;0.65;;;;;;;;;;5000066;28;20132;-56
2022/02/18 10:10:57;;;;;;;1.45;0.80;;;;;;;;;;5000589;28;20029;-55
2022/02/18 10:13:35;;;;;;;1.67;0.70;;;;;;;;;;4999626;28;20793;-55
2022/02/18 10:16:01;;;;;;;2.08;0.80;;;;;;;;;;5006197;28;20027;-61
2022/02/18 10:18:26;;;;;;;1.45;0.80;;;;;;;;;;4998509;28;20516;-56
2022/02/18 10:20:53;;;;;;;1.27;0.60;;;;;;;;;;5001943;28;20107;-56
2022/02/18 10:23:18;;;;;;;2.65;0.80;;;;;;;;;;5000753;28;20021;-56
2022/02/18 10:25:45;;;;;;;2.33;0.60;;;;;;;;;;5001316;28;20018;-56
2022/02/18 10:28:11;;;;;;;2.08;0.68;;;;;;;;;;4993305;28;20086;-55
2022/02/18 10:30:36;;;;;;;3.05;0.88;;;;;;;;;;4982996;28;20151;-55
2022/02/18 10:33:12;;;;;;;1.98;0.80;;;;;;;;;;4979856;28;20103;-55
2022/02/18 10:35:37;;;;;;;2.17;0.90;;;;;;;;;;5002349;28;20025;-58
2022/02/18 10:38:02;;;;;;;3.03;0.70;;;;;;;;;;5002237;28;20868;-56
2022/02/18 10:40:28;;;;;;;2.58;0.55;;;;;;;;;;5001094;28;20294;-56
2022/02/18 10:42:53;;;;;;;1.87;0.70;;;;;;;;;;5002015;28;20859;-56
2022/02/18 10:45:19;;;;;;;2.67;0.70;;;;;;;;;;4987843;28;20326;-57
2022/02/18 10:47:45;;;;;;;1.50;0.80;;;;;;;;;;4982854;28;20136;-57
2022/02/18 10:50:13;;;;;;;3.72;0.90;;;;;;;;;;4983209;28;20342;-57
2022/02/18 10:52:38;;;;;;;2.63;0.88;;;;;;;;;;4983553;28;20042;-57
2022/02/18 10:55:07;;;;;;;2.30;0.90;;;;;;;;;;4968420;28;20081;-58
2022/02/18 10:57:32;;;;;;;5.15;0.80;;;;;;;;;;4996981;28;20653;-56
2022/02/18 11:00:00;;;;;;;3.60;0.73;;;;;;;;;;4982509;28;20034;-58
2022/02/18 11:02:37;;;;;;;1.85;0.80;;;;;;;;;;4962265;28;20027;-60
2022/02/18 11:05:21;;;;;;;2.63;0.70;;;;;;;;;;4980254;28;20555;-56
2022/02/18 11:07:46;;;;;;;2.63;0.77;;;;;;;;;;4982459;28;20026;-56
2022/02/18 11:10:30;;;;;;;4.07;0.60;;;;;;;;;;4983062;28;20038;-57
2022/02/18 11:12:55;;;;;;;1.83;0.70;;;;;;;;;;4982115;28;20273;-58
2022/02/18 11:15:21;;;;;;;6.18;1.75;;;;;;;;;;4983525;28;20014;-55
2022/02/18 11:17:46;;;;;;;1.75;0.85;;;;;;;;;;4986817;28;20034;-55
2022/02/18 11:20:13;;;;;;;1.30;0.60;;;;;;;;;;4974123;28;20097;-54
2022/02/18 11:22:38;;;;;;;1.63;0.73;;;;;;;;;;4965609;28;20713;-58
2022/02/18 11:25:03;;;;;;;1.70;0.70;;;;;;;;;;4982308;28;20026;-55
2022/02/18 11:27:29;;;;;;;3.17;0.90;;;;;;;;;;4981777;28;20049;-54
2022/02/18 11:29:54;;;;;;;1.63;0.80;;;;;;;;;;4982137;28;20101;-55
2022/02/18 11:32:19;;;;;;;1.73;0.70;;;;;;;;;;4982698;28;20551;-53
2022/02/18 11:34:48;;;;;;;2.40;0.87;;;;;;;;;;4981675;28;20489;-55
2022/02/18 11:37:23;;;;;;;2.10;0.73;;;;;;;;;;4980134;28;20021;-54
2022/02/18 11:39:48;;;;;;;3.67;0.70;;;;;;;;;;4982243;28;20023;-56
2022/02/18 11:42:19;;;;;;;3.03;0.80;;;;;;;;;;4982277;28;20026;-57
2022/02/18 11:44:44;;;;;;;2.00;0.90;;;;;;;;;;4982115;28;20081;-56
2022/02/18 11:47:10;;;;;;;2.40;0.80;;;;;;;;;;4968823;28;20439;-56
2022/02/18 11:49:35;;;;;;;2.92;0.90;;;;;;;;;;5000788;28;20882;-56
2022/02/18 11:52:06;;;;;;;2.03;0.70;;;;;;;;;;4982150;28;20017;-57
2022/02/18 11:54:32;;;;;;;1.98;0.70;;;;;;;;;;4990597;28;20181;-57
2022/02/18 11:56:58;;;;;;;2.33;0.88;;;;;;;;;;4992366;28;20101;-57
2022/02/18 11:59:39;;;;;;;1.85;0.73;;;;;;;;;;4987672;28;20553;-57
2022/02/18 12:02:05;;;;;;;1.95;0.63;;;;;;;;;;4966957;28;20547;-57
2022/02/18 12:04:33;;;;;;;3.17;0.90;;;;;;;;;;4988323;28;20026;-56
2022/02/18 12:07:21;;;;;;;2.80;1.02;;;;;;;;;;4990338;28;20022;-55
2022/02/18 12:09:49;;;;;;;1.80;0.80;;;;;;;;;;4980780;28;20463;-57
2022/02/18 12:12:20;;;;;;;2.25;0.80;;;;;;;;;;5001024;28;20018;-56
2022/02/18 12:14:54;;;;;;;1.48;0.68;;;;;;;;;;5002032;28;20493;-56
2022/02/18 12:17:19;;;;;;;1.52;0.80;;;;;;;;;;4985405;28;20037;-56
2022/02/18 12:19:44;;;;;;;1.93;0.60;;;;;;;;;;4979806;28;20022;-55
2022/02/18 12:22:10;;;;;;;1.93;0.80;;;;;;;;;;4982009;28;20030;-54
2022/02/18 12:24:42;;;;;;;1.42;0.52;;;;;;;;;;4984743;28;20026;-56
2022/02/18 12:27:28;;;;;;;1.80;0.80;;;;;;;;;;4983384;28;20045;-55
2022/02/18 12:29:54;;;;;;;1.67;0.80;;;;;;;;;;4982301;28;20044;-56
2022/02/18 12:32:19;;;;;;;2.05;0.82;;;;;;;;;;4992763;28;20639;-57
2022/02/18 12:34:44;;;;;;;2.45;0.85;;;;;;;;;;4963647;28;20519;-56
2022/02/18 12:37:10;;;;;;;3.63;0.80;;;;;;;;;;4981643;28;20028;-57
2022/02/18 12:39:42;;;;;;;1.90;0.70;;;;;;;;;;4997301;28;20021;-55
2022/02/18 12:42:15;;;;;;;2.67;0.75;;;;;;;;;;4988278;28;20112;-56
2022/02/18 12:44:44;;;;;;;2.50;0.77;;;;;;;;;;4983201;28;20514;-55
2022/02/18 12:47:09;;;;;;;1.80;0.60;;;;;;;;;;4982110;28;20549;-56
2022/02/18 12:49:40;;;;;;;2.50;0.70;;;;;;;;;;4980289;28;20033;-55
2022/02/18 12:52:06;;;;;;;2.05;0.60;;;;;;;;;;4981352;28;20260;-57
2022/02/18 12:54:47;;;;;;;2.10;0.70;;;;;;;;;;4982155;28;20030;-56
2022/02/18 12:57:15;;;;;;;2.60;0.95;;;;;;;;;;4981359;28;20061;-56
2022/02/18 12:59:42;;;;;;;2.03;0.80;;;;;;;;;;4981477;28;20083;-54
2022/02/18 13:02:07;;;;;;;2.30;0.70;;;;;;;;;;4984230;28;20022;-56
2022/02/18 13:04:32;;;;;;;2.30;0.77;;;;;;;;;;4980807;28;20018;-57
2022/02/18 13:06:57;;;;;;;2.13;0.77;;;;;;;;;;4987831;28;20293;-55
2022/02/18 13:09:25;;;;;;;1.77;0.80;;;;;;;;;;4984481;28;20339;-56
2022/02/18 13:11:50;;;;;;;2.45;0.90;;;;;;;;;;4977603;28;20037;-55
2022/02/18 13:14:16;;;;;;;2.63;0.70;;;;;;;;;;4983583;28;20030;-56
2022/02/18 13:16:44;;;;;;;3.27;0.90;;;;;;;;;;4979363;28;20764;-57
2022/02/18 13:19:09;;;;;;;3.00;0.90;;;;;;;;;;4983849;28;20014;-55
2022/02/18 13:21:34;;;;;;;2.83;0.90;;;;;;;;;;4982422;28;20382;-56
2022/02/18 13:24:00;;;;;;;2.23;0.90;;;;;;;;;;4980557;28;20022;-56
2022/02/18 13:26:26;;;;;;;2.13;0.90;;;;;;;;;;4963656;28;20314;-57
2022/02/18 13:28:51;;;;;;;2.88;0.90;;;;;;;;;;4979295;28;20046;-55
2022/02/18 13:31:17;;;;;;;2.13;0.70;;;;;;;;;;4986008;28;20060;-57
2022/02/18 13:33:47;;;;;;;2.70;0.80;;;;;;;;;;4988709;28;20049;-55
2022/02/18 13:36:16;;;;;;;2.28;0.80;;;;;;;;;;4984900;28;20113;-56
2022/02/18 13:38:44;;;;;;;2.45;0.77;;;;;;;;;;4984926;28;20054;-55
2022/02/18 13:41:20;;;;;;;2.13;0.90;;;;;;;;;;4983594;28;20511;-56
2022/02/18 13:43:52;;;;;;;3.38;0.73;;;;;;;;;;4963811;28;20161;-55
2022/02/18 13:46:20;;;;;;;1.83;0.75;;;;;;;;;;4988850;28;20021;-57
2022/02/18 13:48:45;;;;;;;3.20;1.17;;;;;;;;;;4990791;28;20077;-56
2022/02/18 13:51:10;;;;;;;2.28;1.10;;;;;;;;;;4978064;28;20439;-56
2022/02/18 13:53:36;;;;;;;3.27;1.03;;;;;;;;;;4999683;28;20037;-56
2022/02/18 13:56:02;;;;;;;3.20;1.20;;;;;;;;;;5000094;28;20029;-56
2022/02/18 13:58:30;;;;;;;2.47;1.13;;;;;;;;;;4978178;28;20034;-55
2022/02/18 14:00:56;;;;;;;2.95;1.60;;;;;;;;;;4979454;28;21029;-56
2022/02/18 14:03:26;;;;;;;2.47;1.20;;;;;;;;;;4982095;28;20030;-56
2022/02/18 14:05:56;;;;;;;4.20;1.65;;;;;;;;;;4965584;28;20019;-56
2022/02/18 14:08:25;;;;;;;3.22;1.27;;;;;;;;;;4968299;28;20326;-57
2022/02/18 14:10:52;;;;;;;3.72;1.90;;;;;;;;;;4980407;28;20032;-56
2022/02/18 14:13:20;;;;;;;3.25;1.85;;;;;;;;;;4980173;28;20113;-56
2022/02/18 14:15:45;;;;;;;3.85;2.20;;;;;;;;;;4979387;28;20027;-58
2022/02/18 14:18:12;;;;;;;4.13;2.00;;;;;;;;;;4979676;28;20080;-56
2022/02/18 14:20:37;;;;;;;5.85;2.15;;;;;;;;;;4978001;28;20407;-56
2022/02/18 14:23:02;;;;;;;4.70;2.03;;;;;;;;;;4981919;28;20464;-56
2022/02/18 14:25:33;;;;;;;4.57;2.35;;;;;;;;;;4993398;28;20265;-56
2022/02/18 14:27:59;;;;;;;5.32;2.78;;;;;;;;;;4993469;28;20064;-56
2022/02/18 14:30:40;;;;;;;5.95;2.63;;;;;;;;;;4986145;28;20057;-54
2022/02/18 14:33:05;;;;;;;5.60;2.42;;;;;;;;;;4981305;28;20026;-55
2022/02/18 14:35:37;;;;;;;6.32;2.53;;;;;;;;;;4983617;28;20019;-55
2022/02/18 14:38:03;;;;;;;4.20;2.33;;;;;;;;;;4985293;28;20112;-57